Time;durP1;ratioP1;P1;durP2;ratioP2;P2;SDS_P1;SDS_P2;PMS_P1;PMS_P2;Temp;Humidity;BMP_temperature;BMP_pressure;BME280_temperature;BME280_humidity;BME280_pressure;Samples;Min_cycle;Max_cycle;Signal;HPM_P1;HPM_P2
2022/05/26 00:02:27;;;;;;;6.20;4.63;;;16.30;85.00;;;;;;5036910;28;20490;-74
2022/05/26 00:04:54;;;;;;;5.07;4.00;;;16.30;84.90;;;;;;5029846;28;20999;-74
2022/05/26 00:07:20;;;;;;;13.63;3.47;;;16.20;84.90;;;;;;5035168;28;20472;-75
2022/05/26 00:09:47;;;;;;;15.10;5.80;;;16.20;85.50;;;;;;5044673;28;20798;-77
2022/05/26 00:12:16;;;;;;;6.83;5.20;;;16.20;85.10;;;;;;5039190;28;20810;-74
2022/05/26 00:14:43;;;;;;;15.53;4.53;;;16.20;85.00;;;;;;5040283;28;20852;-74
2022/05/26 00:17:10;;;;;;;6.07;5.47;;;16.20;85.10;;;;;;5040287;28;20483;-74
2022/05/26 00:19:38;;;;;;;8.83;4.50;;;16.20;85.20;;;;;;5039957;28;20475;-74
2022/05/26 00:22:05;;;;;;;8.93;4.80;;;16.30;85.30;;;;;;5040687;28;20479;-73
2022/05/26 00:24:32;;;;;;;5.60;3.60;;;16.30;85.40;;;;;;5032308;28;20494;-73
2022/05/26 00:26:59;;;;;;;5.90;4.77;;;16.30;85.30;;;;;;5035130;28;20478;-74
2022/05/26 00:29:26;;;;;;;5.57;2.73;;;16.30;85.30;;;;;;5040664;28;21010;-74
2022/05/26 00:31:52;;;;;;;3.97;3.57;;;16.40;85.20;;;;;;5041426;28;20566;-74
2022/05/26 00:34:19;;;;;;;3.33;2.23;;;16.30;85.30;;;;;;5035248;28;20476;-75
2022/05/26 00:36:47;;;;;;;13.93;4.13;;;16.40;85.20;;;;;;5039402;28;20894;-71
2022/05/26 00:39:17;;;;;;;8.30;5.63;;;16.30;85.30;;;;;;5038661;28;20483;-74
2022/05/26 00:41:47;;;;;;;4.23;3.83;;;16.40;85.00;;;;;;5034035;28;20482;-75
2022/05/26 00:44:14;;;;;;;8.20;5.00;;;;;;;;;;5037093;28;20497;-74
2022/05/26 00:46:47;;;;;;;6.50;4.60;;;16.50;85.20;;;;;;5043549;28;20475;-75
2022/05/26 00:49:22;;;;;;;10.50;4.50;;;16.50;85.10;;;;;;5042349;28;20508;-74
2022/05/26 00:51:50;;;;;;;10.63;5.07;;;16.40;85.00;;;;;;5041709;28;20498;-73
2022/05/26 00:54:23;;;;;;;4.17;3.77;;;16.40;85.30;;;;;;5040974;28;20495;-73
2022/05/26 00:56:53;;;;;;;6.00;4.60;;;16.40;85.40;;;;;;5038815;28;21004;-75
2022/05/26 00:59:26;;;;;;;5.87;4.17;;;16.40;85.40;;;;;;5036677;28;20483;-74
2022/05/26 01:01:54;;;;;;;11.23;2.80;;;16.40;85.40;;;;;;5029946;28;20850;-73
2022/05/26 01:04:24;;;;;;;7.40;3.67;;;16.30;85.40;;;;;;5042583;28;20478;-74
2022/05/26 01:06:58;;;;;;;4.67;4.23;;;16.30;85.50;;;;;;5036602;28;20569;-74
2022/05/26 01:09:25;;;;;;;3.07;2.60;;;16.40;85.60;;;;;;5020147;28;20478;-73
2022/05/26 01:11:52;;;;;;;3.67;3.27;;;16.40;85.10;;;;;;5038700;28;20835;-75
2022/05/26 01:14:22;;;;;;;5.90;4.40;;;16.40;85.00;;;;;;5060277;28;20903;-73
2022/05/26 01:17:02;;;;;;;4.43;4.03;;;16.40;85.20;;;;;;5033995;28;20568;-74
2022/05/26 01:20:04;;;;;;;4.83;3.90;;;16.40;85.30;;;;;;5021054;28;20576;-74
2022/05/26 01:22:40;;;;;;;3.90;3.13;;;;;;;;;;5039636;28;20479;-73
2022/05/26 01:25:32;;;;;;;6.00;4.47;;;16.40;85.60;;;;;;5030742;28;20475;-73
2022/05/26 01:28:13;;;;;;;3.90;2.33;;;16.30;86.50;;;;;;5045212;28;21018;-75
2022/05/26 01:30:50;;;;;;;4.20;3.80;;;16.30;86.50;;;;;;5039674;28;20487;-76
2022/05/26 01:33:32;;;;;;;4.20;3.80;;;16.20;86.10;;;;;;5038354;27;20509;-75
2022/05/26 01:36:18;;;;;;;5.10;4.57;;;16.20;86.30;;;;;;5046649;28;20512;-76
2022/05/26 01:38:58;;;;;;;6.63;4.10;;;16.20;86.30;;;;;;5035562;28;20482;-71
2022/05/26 01:41:39;;;;;;;3.23;2.70;;;16.20;86.00;;;;;;5059174;28;20483;-74
2022/05/26 01:44:16;;;;;;;4.90;3.63;;;16.20;86.10;;;;;;5064849;28;21389;-76
2022/05/26 01:46:44;;;;;;;4.73;3.30;;;16.20;86.60;;;;;;5060769;28;20473;-76
2022/05/26 01:49:19;;;;;;;9.73;3.40;;;16.20;86.60;;;;;;5064422;28;20478;-74
2022/05/26 01:51:53;;;;;;;5.60;3.50;;;16.20;86.70;;;;;;5051517;27;20482;-75
2022/05/26 01:54:25;;;;;;;5.40;2.00;;;16.30;87.10;;;;;;5064302;28;20594;-75
2022/05/26 01:56:56;;;;;;;3.67;3.27;;;16.30;87.30;;;;;;5061684;28;20478;-73
2022/05/26 01:59:29;;;;;;;2.87;2.40;;;16.30;87.10;;;;;;5065745;27;20482;-74
2022/05/26 02:02:01;;;;;;;3.70;2.50;;;16.20;87.60;;;;;;5064089;28;21001;-75
2022/05/26 02:04:34;;;;;;;2.50;2.20;;;16.30;88.00;;;;;;5061694;28;20475;-75
2022/05/26 02:07:10;;;;;;;8.93;2.93;;;16.20;87.50;;;;;;5060548;28;20985;-75
2022/05/26 02:09:42;;;;;;;3.20;2.90;;;16.30;88.10;;;;;;5061049;28;20478;-74
2022/05/26 02:12:13;;;;;;;5.30;4.10;;;16.20;87.80;;;;;;5064985;28;20510;-76
2022/05/26 02:14:45;;;;;;;4.00;3.40;;;16.30;87.80;;;;;;5066023;27;20479;-73
2022/05/26 02:17:16;;;;;;;6.13;4.83;;;16.20;87.40;;;;;;5061164;28;20474;-73
2022/05/26 02:19:49;;;;;;;4.67;2.43;;;16.20;87.50;;;;;;5065962;28;20473;-76
2022/05/26 02:22:21;;;;;;;4.90;3.90;;;16.20;87.50;;;;;;5049139;28;20478;-74
2022/05/26 02:24:54;;;;;;;9.07;3.20;;;16.20;87.40;;;;;;5063828;28;20492;-73
2022/05/26 02:27:21;;;;;;;3.50;2.17;;;16.10;87.80;;;;;;5066259;28;20483;-76
2022/05/26 02:29:53;;;;;;;3.07;2.67;;;16.10;88.30;;;;;;5062498;28;20470;-75
2022/05/26 02:32:22;;;;;;;2.73;2.40;;;16.00;88.60;;;;;;5062536;27;20485;-77
2022/05/26 02:34:53;;;;;;;7.03;3.03;;;16.00;89.10;;;;;;5061751;28;20944;-75
2022/05/26 02:37:21;;;;;;;15.90;3.00;;;16.00;90.00;;;;;;5064269;28;20485;-77
2022/05/26 02:39:48;;;;;;;4.17;3.00;;;16.00;89.40;;;;;;5064328;28;20485;-76
2022/05/26 02:42:15;;;;;;;6.20;3.07;;;16.00;89.80;;;;;;5060284;28;20482;-75
2022/05/26 02:44:44;;;;;;;3.83;2.73;;;16.00;89.80;;;;;;5059758;28;20982;-73
2022/05/26 02:47:25;;;;;;;6.53;5.20;;;16.00;89.50;;;;;;5057322;28;20570;-75
2022/05/26 02:50:06;;;;;;;20.10;3.10;;;15.90;89.70;;;;;;5051129;28;20473;-77
2022/05/26 02:52:41;;;;;;;7.20;2.80;;;15.80;90.10;;;;;;5055837;28;20475;-73
2022/05/26 02:55:18;;;;;;;6.93;4.63;;;15.80;90.00;;;;;;5061293;28;20490;-76
2022/05/26 02:57:56;;;;;;;3.87;3.20;;;15.80;90.30;;;;;;5050639;28;20466;-77
2022/05/26 03:00:29;;;;;;;3.40;2.80;;;15.70;90.10;;;;;;5049147;28;20482;-73
2022/05/26 03:03:01;;;;;;;3.20;2.63;;;15.80;90.30;;;;;;5058841;28;20884;-75
2022/05/26 03:05:35;;;;;;;8.43;5.00;;;15.70;89.80;;;;;;5058709;28;20875;-76
2022/05/26 03:08:06;;;;;;;3.27;2.47;;;15.80;90.30;;;;;;5051205;28;20573;-74
2022/05/26 03:10:34;;;;;;;4.67;2.33;;;15.80;89.60;;;;;;5059224;28;21002;-74
2022/05/26 03:13:01;;;;;;;17.73;2.47;;;15.80;89.90;;;;;;5059595;28;20797;-75
2022/05/26 03:15:29;;;;;;;5.97;4.30;;;15.80;90.30;;;;;;5055169;28;20473;-74
2022/05/26 03:17:57;;;;;;;5.73;2.67;;;15.80;90.70;;;;;;5055705;28;20482;-76
2022/05/26 03:20:24;;;;;;;2.90;2.53;;;15.70;90.60;;;;;;5056487;28;20477;-76
2022/05/26 03:22:52;;;;;;;7.03;3.77;;;15.70;90.60;;;;;;5062596;28;20474;-77
2022/05/26 03:25:19;;;;;;;9.20;2.47;;;15.70;90.70;;;;;;5055139;28;20470;-75
2022/05/26 03:27:46;;;;;;;12.13;2.63;;;15.60;91.00;;;;;;5066707;28;20466;-75
2022/05/26 03:30:13;;;;;;;3.63;3.17;;;15.70;90.90;;;;;;5060847;28;20490;-74
2022/05/26 03:32:41;;;;;;;7.30;3.10;;;15.50;91.00;;;;;;5056559;28;20497;-75
2022/05/26 03:40:49;;;;;;;3.50;2.43;;;15.60;91.60;;;;;;5057995;28;20482;-76
2022/05/26 03:43:16;;;;;;;3.93;2.67;;;15.60;91.00;;;;;;5060737;28;20550;-74
2022/05/26 03:45:43;;;;;;;10.50;3.90;;;15.70;91.10;;;;;;5053412;28;21249;-76
2022/05/26 03:48:10;;;;;;;6.10;4.43;;;15.60;91.30;;;;;;5072661;28;20524;-74
2022/05/26 03:50:38;;;;;;;8.13;3.40;;;15.70;91.00;;;;;;5059982;28;20474;-74
2022/05/26 03:53:06;;;;;;;10.33;2.70;;;15.60;91.20;;;;;;5059059;28;21185;-75
2022/05/26 03:55:33;;;;;;;4.93;4.43;;;15.50;91.30;;;;;;5057809;28;20486;-75
2022/05/26 03:58:03;;;;;;;4.20;3.60;;;15.40;91.00;;;;;;5057909;28;20477;-76
2022/05/26 04:00:31;;;;;;;6.20;2.90;;;15.40;91.20;;;;;;5058984;28;20535;-74
2022/05/26 04:02:59;;;;;;;5.00;3.40;;;15.40;91.40;;;;;;5060046;28;20487;-75
2022/05/26 04:05:26;;;;;;;7.77;4.00;;;15.30;91.10;;;;;;5060125;28;20486;-73
2022/05/26 04:07:53;;;;;;;3.57;3.27;;;15.30;91.10;;;;;;5049021;28;20477;-75
2022/05/26 04:10:22;;;;;;;2.73;2.50;;;15.40;91.60;;;;;;5055540;28;20487;-74
2022/05/26 04:12:49;;;;;;;8.23;2.47;;;15.40;91.40;;;;;;5059720;28;20510;-75
2022/05/26 04:15:17;;;;;;;3.80;2.83;;;15.40;91.20;;;;;;5053808;28;20486;-74
2022/05/26 04:17:44;;;;;;;2.90;2.43;;;15.50;91.50;;;;;;5050795;28;20491;-75
2022/05/26 04:20:17;;;;;;;6.70;4.40;;;15.60;91.20;;;;;;5059225;28;20501;-72
2022/05/26 04:22:44;;;;;;;3.13;2.73;;;15.70;91.20;;;;;;5059003;28;20478;-74
2022/05/26 04:25:11;;;;;;;7.63;4.70;;;15.80;91.10;;;;;;5059106;28;20485;-73
2022/05/26 04:27:39;;;;;;;11.00;2.93;;;15.80;91.10;;;;;;5057918;28;20563;-73
2022/05/26 04:30:10;;;;;;;4.53;3.50;;;15.80;91.60;;;;;;5057380;28;20875;-74
2022/05/26 04:32:39;;;;;;;4.90;3.13;;;15.70;91.50;;;;;;5058776;28;20540;-74
2022/05/26 04:35:06;;;;;;;12.43;4.60;;;15.60;91.60;;;;;;5060114;28;21019;-73
2022/05/26 04:37:33;;;;;;;3.40;2.87;;;15.60;91.80;;;;;;5058795;28;20507;-73
2022/05/26 04:40:00;;;;;;;5.83;4.20;;;15.60;91.50;;;;;;5059480;28;20479;-75
2022/05/26 04:42:29;;;;;;;10.13;2.50;;;15.60;91.70;;;;;;5061036;28;20471;-75
2022/05/26 04:44:58;;;;;;;4.53;2.50;;;15.60;91.80;;;;;;5046078;28;20498;-75
2022/05/26 04:47:25;;;;;;;4.30;2.90;;;15.60;91.80;;;;;;5051760;28;20562;-73
2022/05/26 04:49:52;;;;;;;4.00;3.10;;;15.50;91.90;;;;;;5051171;28;20487;-74
2022/05/26 04:52:21;;;;;;;3.80;2.70;;;15.60;91.90;;;;;;5059691;28;20483;-75
2022/05/26 04:54:49;;;;;;;4.40;3.17;;;15.60;92.20;;;;;;5059308;28;20483;-76
2022/05/26 04:57:18;;;;;;;4.57;3.60;;;15.60;92.30;;;;;;5057842;28;20816;-75
2022/05/26 04:59:45;;;;;;;5.03;4.53;;;15.60;92.00;;;;;;5056798;28;20486;-76
2022/05/26 05:02:15;;;;;;;3.70;3.30;;;15.40;92.00;;;;;;5056287;28;20514;-73
2022/05/26 05:04:44;;;;;;;3.20;2.63;;;15.40;92.00;;;;;;5058217;28;20482;-73
2022/05/26 05:07:11;;;;;;;5.80;4.13;;;15.40;91.90;;;;;;5055691;28;20486;-72
2022/05/26 05:09:39;;;;;;;11.93;2.90;;;15.50;92.10;;;;;;5058925;28;21115;-73
2022/05/26 05:12:08;;;;;;;4.83;3.53;;;15.50;92.20;;;;;;5059581;28;20479;-76
2022/05/26 05:14:40;;;;;;;3.30;3.00;;;15.60;92.40;;;;;;5059570;28;20490;-72
2022/05/26 05:17:07;;;;;;;8.13;2.63;;;15.70;92.00;;;;;;5048430;28;20557;-75
2022/05/26 05:19:35;;;;;;;4.63;2.10;;;15.80;92.20;;;;;;5061717;28;21641;-72
2022/05/26 05:22:06;;;;;;;4.10;3.53;;;15.90;92.20;;;;;;5060595;28;20489;-75
2022/05/26 05:24:38;;;;;;;3.00;2.60;;;16.00;92.20;;;;;;5061691;28;20475;-75
2022/05/26 05:27:10;;;;;;;2.93;2.67;;;16.00;91.90;;;;;;5057960;28;20471;-75
2022/05/26 05:29:40;;;;;;;13.33;3.77;;;16.10;92.10;;;;;;5058853;28;20494;-72
2022/05/26 05:32:11;;;;;;;4.83;3.03;;;16.10;91.70;;;;;;5060624;28;20489;-75
2022/05/26 05:34:44;;;;;;;2.87;2.57;;;16.20;92.20;;;;;;5060853;28;20474;-76
2022/05/26 05:37:11;;;;;;;4.23;3.83;;;16.20;92.00;;;;;;5051224;28;20510;-76
2022/05/26 05:39:38;;;;;;;5.07;3.33;;;16.30;92.30;;;;;;5054386;28;20494;-74
2022/05/26 05:42:05;;;;;;;5.13;2.87;;;16.30;92.00;;;;;;5054211;28;20949;-74
2022/05/26 05:44:33;;;;;;;4.50;2.57;;;16.40;92.60;;;;;;5054145;28;20470;-74
2022/05/26 05:47:01;;;;;;;6.17;5.20;;;16.40;92.10;;;;;;5054526;28;20625;-73
2022/05/26 05:49:30;;;;;;;21.23;3.03;;;16.50;91.80;;;;;;5055150;28;20482;-73
2022/05/26 05:52:05;;;;;;;3.87;3.50;;;16.50;91.60;;;;;;5055440;28;20490;-75
2022/05/26 05:54:32;;;;;;;4.70;2.63;;;16.60;91.90;;;;;;5042184;28;21193;-73
2022/05/26 05:56:59;;;;;;;12.60;3.60;;;16.70;91.90;;;;;;5044970;28;20475;-76
2022/05/26 05:59:26;;;;;;;2.97;2.70;;;16.70;91.70;;;;;;5057472;28;20507;-76
2022/05/26 06:01:52;;;;;;;9.23;3.50;;;16.70;92.00;;;;;;5055404;28;20481;-76
2022/05/26 06:04:19;;;;;;;11.93;3.50;;;16.70;91.40;;;;;;5053615;28;20476;-74
2022/05/26 06:06:46;;;;;;;3.90;3.60;;;16.80;91.70;;;;;;5056244;28;20474;-75
2022/05/26 06:09:15;;;;;;;5.93;3.70;;;16.70;91.60;;;;;;5058437;28;20506;-75
2022/05/26 06:11:43;;;;;;;12.93;3.23;;;16.90;91.40;;;;;;5060248;28;20533;-76
2022/05/26 06:14:10;;;;;;;2.70;2.07;;;16.80;91.20;;;;;;5057950;28;20479;-72
2022/05/26 06:16:37;;;;;;;2.87;2.57;;;16.90;91.80;;;;;;5057023;28;20479;-71
2022/05/26 06:19:04;;;;;;;11.33;2.60;;;16.80;91.40;;;;;;5059325;28;20487;-74
2022/05/26 06:21:31;;;;;;;4.93;2.70;;;16.80;91.80;;;;;;5058765;28;20475;-77
2022/05/26 06:23:59;;;;;;;4.17;2.50;;;;;;;;;;5059078;28;20531;-77
2022/05/26 06:26:28;;;;;;;8.67;2.37;;;16.80;91.50;;;;;;5056197;28;20482;-74
2022/05/26 06:31:39;;;;;;;11.90;2.33;;;16.90;91.80;;;;;;5053968;28;20478;-76
2022/05/26 06:39:47;;;;;;;2.93;2.70;;;17.00;91.30;;;;;;4962603;28;20538;-73
2022/05/26 06:42:15;;;;;;;3.57;2.67;;;17.10;91.30;;;;;;5036144;28;20486;-74
2022/05/26 06:44:43;;;;;;;5.33;3.37;;;17.00;91.60;;;;;;5063020;28;20462;-73
2022/05/26 06:47:13;;;;;;;11.53;3.40;;;16.90;91.90;;;;;;5060037;28;20482;-72
2022/05/26 06:49:40;;;;;;;5.00;3.10;;;17.00;91.50;;;;;;5060635;28;20844;-76
2022/05/26 06:52:08;;;;;;;7.47;2.47;;;16.90;91.80;;;;;;5061544;28;21005;-76
2022/05/26 06:54:37;;;;;;;3.07;2.77;;;17.00;91.90;;;;;;5063908;28;20459;-77
2022/05/26 06:57:05;;;;;;;3.70;2.43;;;17.10;91.80;;;;;;5047674;28;20482;-74
2022/05/26 06:59:34;;;;;;;4.23;2.67;;;17.00;91.70;;;;;;5055733;28;21085;-77
2022/05/26 07:02:01;;;;;;;12.80;3.50;;;17.10;91.30;;;;;;5072337;28;20827;-74
2022/05/26 07:04:28;;;;;;;3.60;3.30;;;17.10;91.80;;;;;;5061794;28;20475;-76
2022/05/26 07:06:56;;;;;;;9.80;3.50;;;17.00;91.10;;;;;;5057996;28;20558;-76
2022/05/26 07:09:24;;;;;;;11.20;3.40;;;17.10;91.60;;;;;;5055949;28;20559;-75
2022/05/26 07:11:51;;;;;;;4.50;4.07;;;17.20;92.20;;;;;;5062147;28;20475;-72
2022/05/26 07:14:19;;;;;;;3.03;2.70;;;17.10;92.10;;;;;;5061465;28;20510;-74
2022/05/26 07:16:47;;;;;;;12.40;4.60;;;17.30;91.30;;;;;;5057990;28;20474;-75
2022/05/26 07:19:15;;;;;;;4.93;4.30;;;17.30;91.50;;;;;;5058308;28;20483;-75
2022/05/26 07:21:43;;;;;;;4.50;2.83;;;17.40;91.30;;;;;;5059091;28;20986;-71
2022/05/26 07:24:10;;;;;;;12.10;4.00;;;17.40;91.40;;;;;;5057499;28;20899;-72
2022/05/26 07:26:38;;;;;;;4.07;3.67;;;17.50;91.50;;;;;;5057313;28;20486;-76
2022/05/26 07:29:05;;;;;;;6.73;4.33;;;17.50;91.50;;;;;;5060371;28;20472;-76
2022/05/26 07:31:33;;;;;;;3.37;3.07;;;17.50;91.40;;;;;;5061486;28;20478;-76
2022/05/26 07:34:01;;;;;;;4.43;3.60;;;17.60;91.40;;;;;;5062858;28;21027;-76
2022/05/26 07:42:01;;;;;;;12.63;4.07;;;17.50;92.30;;;;;;5054943;28;20477;-74
2022/05/26 07:44:29;;;;;;;4.60;4.17;;;17.50;91.50;;;;;;5056902;28;20864;-74
2022/05/26 07:46:56;;;;;;;4.97;4.07;;;17.60;91.90;;;;;;5054023;28;20491;-74
2022/05/26 07:49:25;;;;;;;6.10;2.90;;;17.70;92.00;;;;;;5058646;28;20646;-73
2022/05/26 07:51:51;;;;;;;6.80;4.57;;;17.80;92.10;;;;;;5059256;28;20478;-73
2022/05/26 07:54:18;;;;;;;7.00;3.77;;;;;;;;;;5059341;28;20475;-73
2022/05/26 07:56:45;;;;;;;7.10;4.30;;;17.90;91.80;;;;;;5060196;28;20478;-75
2022/05/26 07:59:12;;;;;;;4.17;3.37;;;17.90;91.60;;;;;;5061422;28;20483;-75
2022/05/26 08:01:39;;;;;;;4.70;2.90;;;;;;;;;;5048652;28;20478;-73
2022/05/26 08:04:07;;;;;;;4.30;3.90;;;17.90;91.90;;;;;;5060040;28;20473;-73
2022/05/26 08:06:35;;;;;;;5.13;3.23;;;17.90;91.70;;;;;;5060942;28;20582;-75
2022/05/26 08:09:02;;;;;;;9.20;5.73;;;17.80;92.00;;;;;;5058910;28;20797;-71
2022/05/26 08:11:29;;;;;;;6.13;3.20;;;17.80;92.10;;;;;;5061385;28;20475;-73
2022/05/26 08:13:56;;;;;;;6.70;4.33;;;17.80;92.50;;;;;;5056518;28;20467;-77
2022/05/26 08:16:22;;;;;;;5.13;4.00;;;18.00;92.40;;;;;;5060540;28;20479;-75
2022/05/26 08:18:50;;;;;;;4.80;4.10;;;18.10;92.00;;;;;;5059926;28;20870;-75
2022/05/26 08:21:18;;;;;;;4.83;3.47;;;18.20;91.60;;;;;;5059390;28;20485;-73
2022/05/26 08:23:46;;;;;;;5.17;3.10;;;18.20;92.20;;;;;;5056316;28;20501;-74
2022/05/26 08:26:15;;;;;;;9.03;4.53;;;18.30;91.90;;;;;;5059049;28;20519;-71
2022/05/26 08:28:43;;;;;;;5.73;4.50;;;18.30;92.00;;;;;;5059890;28;20554;-74
2022/05/26 08:31:13;;;;;;;27.07;4.30;;;18.30;91.60;;;;;;5057957;28;21034;-77
2022/05/26 08:33:40;;;;;;;7.10;4.20;;;18.20;91.70;;;;;;5059457;28;20508;-75
2022/05/26 08:36:10;;;;;;;4.83;3.60;;;18.10;91.60;;;;;;5057749;28;20474;-77
2022/05/26 08:38:38;;;;;;;14.47;4.10;;;18.00;91.20;;;;;;5057153;28;20560;-74
2022/05/26 08:41:07;;;;;;;6.73;3.80;;;18.10;92.00;;;;;;5058460;28;20478;-75
2022/05/26 08:43:38;;;;;;;4.40;3.07;;;18.20;91.60;;;;;;5057060;28;20551;-73
2022/05/26 08:46:07;;;;;;;4.00;2.73;;;18.40;92.10;;;;;;5056556;28;20493;-74
2022/05/26 08:48:44;;;;;;;6.27;4.50;;;18.50;92.00;;;;;;5056829;28;20497;-74
2022/05/26 08:51:19;;;;;;;11.40;3.33;;;18.60;92.10;;;;;;5045787;28;20532;-71
2022/05/26 08:53:46;;;;;;;6.87;4.13;;;18.70;92.00;;;;;;5051992;28;20483;-71
2022/05/26 08:56:18;;;;;;;4.70;3.73;;;18.80;91.00;;;;;;5058646;28;20494;-72
2022/05/26 08:58:47;;;;;;;7.40;3.40;;;18.90;90.50;;;;;;5060181;28;20471;-75
2022/05/26 09:01:17;;;;;;;4.87;4.27;;;19.10;90.40;;;;;;5056376;28;20489;-73
2022/05/26 09:03:45;;;;;;;3.90;2.80;;;19.30;90.30;;;;;;5060933;28;20565;-72
2022/05/26 09:06:14;;;;;;;3.60;2.83;;;16.90;89.50;;;;;;5052135;28;20577;-74
2022/05/26 09:14:25;;;;;;;6.13;3.70;;;19.50;90.30;;;;;;5059119;28;20474;-76
2022/05/26 09:16:57;;;;;;;5.60;3.67;;;19.50;89.30;;;;;;5056665;28;20472;-73
2022/05/26 09:19:24;;;;;;;4.40;2.87;;;19.40;89.80;;;;;;5057828;28;20515;-74
2022/05/26 09:21:52;;;;;;;4.70;3.90;;;19.40;88.40;;;;;;5056827;28;20829;-78
2022/05/26 09:24:25;;;;;;;5.70;4.00;;;19.50;88.10;;;;;;5059929;28;20845;-71
2022/05/26 09:26:59;;;;;;;12.50;3.73;;;19.40;89.10;;;;;;5055225;28;20483;-72
2022/05/26 09:29:27;;;;;;;4.60;3.40;;;19.40;89.40;;;;;;5056700;28;20481;-74
2022/05/26 09:31:56;;;;;;;9.20;3.67;;;19.20;86.90;;;;;;5058966;28;21306;-74
2022/05/26 09:34:28;;;;;;;8.20;2.80;;;19.40;89.80;;;;;;5059519;28;20887;-75
2022/05/26 09:36:59;;;;;;;5.03;4.13;;;19.40;89.40;;;;;;5057596;28;20499;-77
2022/05/26 09:39:30;;;;;;;5.57;3.27;;;19.30;87.30;;;;;;5058755;28;20487;-75
2022/05/26 09:41:59;;;;;;;5.30;3.70;;;19.30;88.70;;;;;;5062062;28;20487;-74
2022/05/26 09:44:41;;;;;;;4.47;3.43;;;19.30;89.00;;;;;;5055984;28;20849;-76
2022/05/26 09:47:22;;;;;;;6.00;3.77;;;19.10;90.00;;;;;;5056830;28;20461;-72
2022/05/26 09:49:51;;;;;;;6.00;3.50;;;19.00;89.00;;;;;;5060150;28;20751;-74
2022/05/26 09:52:20;;;;;;;4.10;3.70;;;18.90;89.20;;;;;;5063427;28;20631;-76
2022/05/26 09:54:49;;;;;;;4.87;4.10;;;19.00;89.90;;;;;;5061130;28;20466;-76
2022/05/26 09:57:20;;;;;;;28.17;5.47;;;19.00;89.20;;;;;;5047993;28;20507;-76
2022/05/26 09:59:48;;;;;;;4.60;3.20;;;19.00;88.30;;;;;;5054470;28;20473;-74
2022/05/26 10:02:19;;;;;;;5.30;3.90;;;19.00;87.60;;;;;;5057074;28;21045;-76
2022/05/26 10:05:05;;;;;;;16.73;4.33;;;19.00;88.80;;;;;;5051031;28;20483;-76
2022/05/26 10:07:49;;;;;;;5.40;3.60;;;19.10;89.10;;;;;;5060291;28;20475;-78
2022/05/26 10:10:23;;;;;;;6.93;4.60;;;19.20;88.70;;;;;;5048619;28;21138;-74
2022/05/26 10:13:05;;;;;;;7.37;4.17;;;19.20;89.10;;;;;;5045593;28;20490;-77
2022/05/26 10:15:41;;;;;;;9.10;6.80;;;19.30;88.40;;;;;;5057868;28;21017;-76
2022/05/26 10:18:29;;;;;;;3.30;2.73;;;19.30;88.10;;;;;;5060834;28;20965;-76
2022/05/26 10:21:02;;;;;;;3.63;2.97;;;19.30;87.70;;;;;;5061528;28;20480;-77
2022/05/26 10:23:58;;;;;;;4.20;3.43;;;19.40;89.20;;;;;;5060329;28;20485;-77
2022/05/26 10:26:33;;;;;;;6.77;3.93;;;19.40;89.50;;;;;;5049541;28;20836;-76
2022/05/26 10:29:27;;;;;;;5.50;3.77;;;19.30;86.50;;;;;;5062110;28;21211;-77
2022/05/26 10:32:14;;;;;;;9.10;3.07;;;19.30;86.90;;;;;;5054307;28;20501;-76
2022/05/26 10:34:58;;;;;;;8.23;5.50;;;;;;;;;;5058072;28;20872;-75
2022/05/26 10:37:34;;;;;;;8.43;4.27;;;19.20;88.50;;;;;;5055356;27;21025;-74
2022/05/26 10:40:16;;;;;;;6.03;3.53;;;19.30;88.60;;;;;;5066689;28;20557;-73
2022/05/26 10:42:47;;;;;;;8.80;5.40;;;19.50;88.60;;;;;;5061125;28;20959;-75
2022/05/26 10:45:18;;;;;;;3.63;2.73;;;19.60;88.90;;;;;;5059966;28;20932;-74
2022/05/26 10:47:53;;;;;;;16.13;5.27;;;19.70;87.90;;;;;;5059767;28;20977;-76
2022/05/26 10:50:30;;;;;;;5.93;4.17;;;19.90;87.10;;;;;;5062323;28;20475;-78
2022/05/26 10:53:04;;;;;;;5.00;3.40;;;20.10;85.20;;;;;;5062419;28;20474;-72
2022/05/26 10:55:57;;;;;;;5.83;4.70;;;20.20;85.00;;;;;;5052946;28;20491;-73
2022/05/26 10:58:29;;;;;;;9.23;4.37;;;20.20;85.70;;;;;;5060240;28;20553;-74
2022/05/26 11:01:02;;;;;;;4.63;3.77;;;20.30;85.90;;;;;;5050439;28;21039;-71
2022/05/26 11:03:35;;;;;;;13.90;4.03;;;20.40;84.70;;;;;;5059227;28;20470;-74
2022/05/26 11:06:06;;;;;;;7.53;5.60;;;20.50;85.50;;;;;;5061152;28;20475;-75
2022/05/26 11:08:40;;;;;;;6.97;4.67;;;20.50;84.90;;;;;;5060522;28;20823;-74
2022/05/26 11:11:13;;;;;;;6.87;3.37;;;20.50;84.70;;;;;;5060725;28;20484;-76
2022/05/26 11:13:51;;;;;;;4.30;3.47;;;20.40;84.40;;;;;;5062422;28;20854;-73
2022/05/26 11:19:23;;;;;;;3.63;2.70;;;20.30;84.10;;;;;;5059998;28;21231;-75
2022/05/26 11:21:54;;;;;;;5.20;3.43;;;20.50;86.40;;;;;;5059223;28;20520;-75
2022/05/26 11:24:22;;;;;;;2.37;2.17;;;20.60;83.60;;;;;;5063082;28;20490;-74
2022/05/26 11:26:54;;;;;;;6.87;4.10;;;20.70;83.70;;;;;;5051790;28;20481;-75
2022/05/26 11:29:24;;;;;;;5.60;3.27;;;21.00;83.20;;;;;;5057664;28;20478;-75
2022/05/26 11:37:40;;;;;;;3.40;3.10;;;22.00;81.10;;;;;;5049348;28;21014;-75
2022/05/26 11:40:10;;;;;;;12.57;3.80;;;21.70;78.30;;;;;;5059483;28;20482;-75
2022/05/26 11:42:50;;;;;;;7.47;4.07;;;21.50;79.10;;;;;;5059132;28;20477;-72
2022/05/26 11:45:19;;;;;;;3.60;2.73;;;;;;;;;;5055819;28;21014;-72
2022/05/26 11:47:56;;;;;;;5.30;3.97;;;21.40;82.90;;;;;;5057898;28;20504;-72
2022/05/26 11:50:27;;;;;;;7.73;3.93;;;21.20;80.00;;;;;;5064386;28;21002;-73
2022/05/26 11:53:15;;;;;;;12.63;3.00;;;21.30;80.40;;;;;;5045435;28;20499;-75
2022/05/26 11:55:52;;;;;;;4.73;3.80;;;21.30;78.60;;;;;;5067222;28;20478;-75
2022/05/26 11:58:35;;;;;;;7.80;3.60;;;21.20;79.00;;;;;;5058821;28;20481;-75
2022/05/26 12:01:36;;;;;;;5.17;3.10;;;21.20;80.00;;;;;;5060346;28;20486;-75
2022/05/26 12:04:27;;;;;;;8.63;5.17;;;21.10;77.80;;;;;;5035734;28;20477;-75
2022/05/26 12:06:58;;;;;;;4.73;3.33;;;21.10;78.70;;;;;;5041894;28;20578;-74
2022/05/26 12:09:35;;;;;;;4.97;3.53;;;21.00;79.80;;;;;;5052156;28;20484;-75
2022/05/26 12:12:04;;;;;;;10.37;6.70;;;21.00;80.40;;;;;;5030429;28;20561;-71
2022/05/26 12:14:33;;;;;;;8.93;5.70;;;21.00;80.20;;;;;;5033730;28;20478;-75
2022/05/26 12:17:33;;;;;;;16.37;6.47;;;20.90;78.90;;;;;;5041199;28;20491;-74
2022/05/26 12:20:05;;;;;;;8.33;6.20;;;21.10;80.10;;;;;;5034191;28;20856;-74
2022/05/26 12:22:36;;;;;;;8.90;5.17;;;21.00;81.70;;;;;;5036764;28;21038;-71
2022/05/26 12:25:22;;;;;;;5.20;4.10;;;21.20;81.80;;;;;;5036191;28;20589;-75
2022/05/26 12:28:26;;;;;;;7.13;4.83;;;21.30;81.10;;;;;;5039377;28;20857;-75
2022/05/26 12:31:10;;;;;;;8.70;6.20;;;21.50;80.40;;;;;;5042106;28;20481;-74
2022/05/26 12:34:02;;;;;;;6.07;5.47;;;22.00;81.80;;;;;;5022337;28;20483;-76
2022/05/26 12:37:02;;;;;;;6.80;4.70;;;22.30;77.60;;;;;;5024541;28;21047;-76
2022/05/26 12:40:21;;;;;;;6.33;4.50;;;22.70;79.10;;;;;;5037492;28;20556;-74
2022/05/26 12:43:05;;;;;;;8.23;4.90;;;22.90;75.30;;;;;;5038116;28;20477;-76
2022/05/26 12:45:49;;;;;;;9.03;6.97;;;23.00;76.40;;;;;;5042014;28;20481;-74
2022/05/26 12:48:43;;;;;;;7.60;5.60;;;23.00;74.10;;;;;;5033902;28;20481;-76
2022/05/26 12:51:12;;;;;;;6.23;4.93;;;22.90;72.20;;;;;;5032648;28;20503;-77
2022/05/26 12:53:47;;;;;;;7.53;5.00;;;22.60;72.70;;;;;;5040313;28;20567;-71
2022/05/26 12:56:19;;;;;;;10.23;3.97;;;22.30;73.40;;;;;;5031420;28;20486;-73
2022/05/26 12:58:49;;;;;;;9.17;7.00;;;;;;;;;;5041907;28;20483;-76
2022/05/26 13:01:20;;;;;;;3.90;3.33;;;22.10;74.50;;;;;;5036392;28;20893;-75
2022/05/26 13:03:51;;;;;;;7.70;5.20;;;22.20;77.70;;;;;;5039295;28;20494;-72
2022/05/26 13:06:29;;;;;;;3.90;3.43;;;22.10;74.50;;;;;;5038356;28;20487;-74
2022/05/26 13:09:03;;;;;;;8.93;7.07;;;22.10;73.30;;;;;;5035090;28;20490;-72
2022/05/26 13:11:33;;;;;;;6.77;5.10;;;22.40;75.40;;;;;;5051828;28;20613;-76
2022/05/26 13:14:02;;;;;;;8.13;5.53;;;22.50;74.80;;;;;;5049802;28;20873;-74
2022/05/26 13:16:33;;;;;;;6.43;5.63;;;22.70;76.60;;;;;;5042353;28;20478;-75
2022/05/26 13:19:10;;;;;;;14.20;6.67;;;23.20;75.40;;;;;;5039551;28;20474;-75
2022/05/26 13:21:37;;;;;;;6.10;4.43;;;23.10;74.20;;;;;;5038919;28;20839;-75
2022/05/26 13:24:13;;;;;;;14.30;7.13;;;23.10;77.20;;;;;;5044717;28;20872;-76
2022/05/26 13:26:42;;;;;;;9.00;5.43;;;23.00;76.40;;;;;;5032336;28;20483;-71
2022/05/26 13:29:10;;;;;;;8.10;5.53;;;22.60;74.20;;;;;;5042879;28;20586;-73
2022/05/26 13:34:28;;;;;;;7.10;5.50;;;22.60;75.10;;;;;;5041165;28;20512;-71
2022/05/26 13:36:54;;;;;;;12.30;2.77;;;22.80;75.20;;;;;;5042809;28;20475;-73
2022/05/26 13:39:25;;;;;;;7.67;4.20;;;22.90;74.10;;;;;;5039821;28;20482;-73
2022/05/26 13:41:53;;;;;;;7.87;4.40;;;22.90;68.30;;;;;;5040165;28;20479;-74
2022/05/26 13:44:39;;;;;;;5.10;4.10;;;22.90;71.80;;;;;;5041925;28;21035;-73
2022/05/26 13:47:08;;;;;;;10.00;5.03;;;;;;;;;;5025338;28;20482;-77
2022/05/26 13:49:38;;;;;;;5.40;3.40;;;22.60;72.40;;;;;;5052692;28;20695;-74